createdAt,value
2019-02-07T00:01:49.830Z,94.50
2019-02-07T00:04:19.445Z,94.20
2019-02-07T00:06:49.164Z,94.10
2019-02-07T00:09:18.875Z,94.10
2019-02-07T00:11:49.088Z,94.00
2019-02-07T00:14:18.965Z,94.00
2019-02-07T00:16:48.751Z,93.90
2019-02-07T00:19:18.465Z,94.10
2019-02-07T00:21:48.114Z,94.00
2019-02-07T00:24:17.740Z,94.00
2019-02-07T00:26:48.012Z,94.20
2019-02-07T00:29:18.052Z,94.00
2019-02-07T00:31:47.688Z,94.00
2019-02-07T00:34:17.596Z,93.90
2019-02-07T00:36:47.299Z,94.10
2019-02-07T00:39:17.681Z,94.10
2019-02-07T00:41:47.381Z,94.10
2019-02-07T00:44:17.014Z,93.90
2019-02-07T00:46:47.058Z,94.00
2019-02-07T00:49:16.668Z,93.90
2019-02-07T00:51:46.382Z,93.90
2019-02-07T00:54:16.425Z,94.00
2019-02-07T00:56:46.114Z,93.90
2019-02-07T00:59:15.832Z,93.90
2019-02-07T01:01:45.700Z,94.00
2019-02-07T01:04:15.626Z,94.00
2019-02-07T01:06:45.272Z,93.90
2019-02-07T01:09:15.306Z,93.80
2019-02-07T01:11:44.934Z,93.90
2019-02-07T01:14:14.828Z,93.70
2019-02-07T01:16:44.624Z,93.60
2019-02-07T01:19:14.257Z,93.70
2019-02-07T01:21:43.869Z,93.60
2019-02-07T01:24:13.559Z,93.60
2019-02-07T01:26:43.252Z,93.30
2019-02-07T01:29:12.960Z,93.40
2019-02-07T01:31:42.683Z,93.20
2019-02-07T01:34:12.477Z,93.20
2019-02-07T01:36:43.783Z,93.20
2019-02-07T01:39:13.558Z,92.90
2019-02-07T01:41:43.165Z,93.00
2019-02-07T01:44:12.922Z,92.90
2019-02-07T01:46:42.536Z,93.10
2019-02-07T01:49:12.377Z,93.20
2019-02-07T01:51:42.387Z,92.80
2019-02-07T01:54:12.008Z,93.20
2019-02-07T01:56:41.702Z,93.20
2019-02-07T01:59:12.494Z,93.10
2019-02-07T02:01:42.188Z,93.10
2019-02-07T02:04:12.128Z,92.90
2019-02-07T02:06:42.114Z,93.00
2019-02-07T02:09:12.080Z,92.90
2019-02-07T02:11:41.856Z,92.90
2019-02-07T02:14:11.758Z,92.80
2019-02-07T02:16:41.378Z,92.90
2019-02-07T02:19:11.080Z,92.90
2019-02-07T02:21:41.112Z,92.90
2019-02-07T02:24:11.068Z,92.80
2019-02-07T02:26:41.778Z,92.80
2019-02-07T02:29:11.693Z,92.90
2019-02-07T02:31:41.308Z,92.90
2019-02-07T02:34:11.346Z,93.10
2019-02-07T02:36:41.295Z,93.00
2019-02-07T02:39:11.152Z,93.10
2019-02-07T02:41:41.068Z,93.10
2019-02-07T02:44:10.769Z,92.90
2019-02-07T02:46:40.525Z,93.10
2019-02-07T02:49:10.485Z,92.90
2019-02-07T02:51:40.197Z,92.80
2019-02-07T02:54:29.102Z,92.80
2019-02-07T02:56:58.789Z,92.80
2019-02-07T02:59:30.068Z,92.70
2019-02-07T03:02:16.833Z,92.80
2019-02-07T03:05:17.978Z,92.70
2019-02-07T03:08:06.821Z,92.60
2019-02-07T03:10:46.661Z,92.80
2019-02-07T03:13:39.674Z,92.70
2019-02-07T03:16:33.389Z,92.70
2019-02-07T03:19:20.796Z,92.60
2019-02-07T03:22:21.452Z,92.60
2019-02-07T03:25:03.667Z,92.70
2019-02-07T03:28:04.421Z,92.70
2019-02-07T03:31:02.290Z,92.60
2019-02-07T03:33:40.877Z,92.70
2019-02-07T03:36:23.264Z,92.70
2019-02-07T03:39:06.337Z,92.50
2019-02-07T03:41:54.383Z,92.60
2019-02-07T03:44:43.842Z,92.40
2019-02-07T03:47:31.473Z,92.40
2019-02-07T03:50:21.971Z,92.40
2019-02-07T03:53:10.930Z,92.30
2019-02-07T03:55:59.637Z,92.40
2019-02-07T03:58:42.811Z,92.20
2019-02-07T04:01:26.146Z,92.30
2019-02-07T04:04:22.167Z,92.20
2019-02-07T04:07:05.803Z,92.10
2019-02-07T04:10:03.729Z,92.00
2019-02-07T04:12:56.947Z,92.10
2019-02-07T04:15:39.305Z,92.40
2019-02-07T04:18:37.016Z,92.00
2019-02-07T04:21:24.714Z,92.10
2019-02-07T04:24:18.343Z,92.00
2019-02-07T04:26:56.176Z,92.00
2019-02-07T04:29:33.045Z,91.90
2019-02-07T04:32:20.401Z,91.90
2019-02-07T04:35:06.733Z,91.40
2019-02-07T04:37:46.381Z,91.80
2019-02-07T04:40:34.164Z,91.80
2019-02-07T04:43:32.126Z,91.80
2019-02-07T04:46:31.108Z,91.80
2019-02-07T04:49:32.018Z,91.70
2019-02-07T04:52:19.972Z,91.80
2019-02-07T04:55:11.725Z,91.70
2019-02-07T04:58:00.057Z,91.70
2019-02-07T05:01:01.141Z,91.70
2019-02-07T05:03:49.358Z,91.60
2019-02-07T05:06:43.853Z,91.60
2019-02-07T05:09:44.921Z,91.40
2019-02-07T05:12:22.058Z,91.60
2019-02-07T05:15:11.453Z,91.20
2019-02-07T05:17:57.968Z,91.40
2019-02-07T05:20:46.665Z,91.30
2019-02-07T05:23:41.177Z,91.10
2019-02-07T05:26:20.121Z,91.20
2019-02-07T05:29:12.163Z,90.90
2019-02-07T05:31:56.342Z,90.50
2019-02-07T05:34:47.690Z,91.10
2019-02-07T05:37:31.292Z,91.00
2019-02-07T05:40:08.919Z,91.10
2019-02-07T05:42:58.129Z,91.10
2019-02-07T05:45:38.153Z,90.90
2019-02-07T05:48:34.905Z,90.70
2019-02-07T05:51:17.503Z,90.90
2019-02-07T05:54:05.182Z,91.00
2019-02-07T05:56:52.649Z,91.00
2019-02-07T05:59:38.864Z,90.80
2019-02-07T06:02:30.716Z,91.50
2019-02-07T06:05:29.573Z,90.80
2019-02-07T06:08:33.345Z,91.10
2019-02-07T06:11:22.121Z,91.00
2019-02-07T06:14:09.644Z,90.90
2019-02-07T06:17:07.873Z,90.60
2019-02-07T06:20:12.165Z,90.80
2019-02-07T06:23:00.428Z,90.70
2019-02-07T06:25:39.943Z,90.80
2019-02-07T06:28:26.306Z,90.60
2019-02-07T06:31:04.005Z,90.80
2019-02-07T06:33:50.814Z,90.70
2019-02-07T06:36:32.558Z,90.40
2019-02-07T06:39:28.502Z,90.50
2019-02-07T06:42:16.147Z,90.40
2019-02-07T06:44:57.162Z,90.40
2019-02-07T06:47:36.192Z,90.50
2019-02-07T06:50:24.256Z,90.20
2019-02-07T06:53:11.646Z,90.70
2019-02-07T06:55:58.270Z,90.50
2019-02-07T06:58:51.213Z,90.60
2019-02-07T07:01:29.641Z,90.40
2019-02-07T07:04:16.731Z,90.60
2019-02-07T07:07:03.978Z,90.50
2019-02-07T07:09:51.636Z,90.50
2019-02-07T07:12:46.276Z,90.20
2019-02-07T07:15:25.536Z,90.40
2019-02-07T07:18:13.085Z,90.40
2019-02-07T07:20:53.783Z,90.10
2019-02-07T07:23:41.601Z,90.50
2019-02-07T07:26:30.389Z,90.50
2019-02-07T07:29:19.706Z,90.60
2019-02-07T07:32:07.200Z,90.40
2019-02-07T07:34:55.428Z,90.60
2019-02-07T07:37:42.880Z,90.60
2019-02-07T07:40:28.253Z,90.30
2019-02-07T07:43:09.600Z,90.50
2019-02-07T07:45:56.915Z,90.50
2019-02-07T07:48:44.704Z,90.40
2019-02-07T07:51:42.376Z,90.40
2019-02-07T07:54:40.527Z,90.20
2019-02-07T07:57:28.235Z,90.20
2019-02-07T08:00:10.096Z,90.10
2019-02-07T08:03:04.825Z,90.10
2019-02-07T08:05:53.547Z,89.40
2019-02-07T08:08:41.345Z,89.80
2019-02-07T08:11:48.607Z,89.10
2019-02-07T08:14:30.542Z,89.40
2019-02-07T08:17:09.956Z,87.90
2019-02-07T08:19:57.901Z,88.30
2019-02-07T08:22:45.581Z,88.80
2019-02-07T08:25:34.895Z,88.60
2019-02-07T08:28:27.060Z,88.30
2019-02-07T08:31:11.970Z,88.70
2019-02-07T08:33:51.678Z,87.20
2019-02-07T08:36:31.368Z,87.90
2019-02-07T08:39:20.089Z,88.10
2019-02-07T08:42:06.889Z,86.50
2019-02-07T08:44:55.107Z,86.50
2019-02-07T08:47:58.401Z,87.10
2019-02-07T08:50:39.413Z,88.10
2019-02-07T08:53:31.053Z,87.30
2019-02-07T08:56:12.966Z,85.40
2019-02-07T08:58:58.349Z,86.70
2019-02-07T09:01:52.581Z,87.80
2019-02-07T09:04:40.694Z,85.70
2019-02-07T09:07:24.237Z,86.80
2019-02-07T09:10:19.454Z,86.40
2019-02-07T09:13:03.154Z,86.80
2019-02-07T09:15:51.690Z,86.40
2019-02-07T09:18:39.377Z,86.80
2019-02-07T09:21:31.288Z,87.20
2019-02-07T09:24:18.897Z,88.00
2019-02-07T09:27:10.625Z,89.70
2019-02-07T09:29:53.390Z,90.10
2019-02-07T09:32:40.774Z,90.10
2019-02-07T09:35:29.642Z,90.30
2019-02-07T09:38:15.556Z,90.90
2019-02-07T09:41:19.398Z,91.20
2019-02-07T09:44:19.145Z,91.20
2019-02-07T09:47:08.162Z,91.60
2019-02-07T09:49:56.673Z,91.70
2019-02-07T09:53:00.858Z,91.50
2019-02-07T09:55:41.470Z,91.40
2019-02-07T09:58:34.484Z,91.70
2019-02-07T10:01:35.873Z,91.60
2019-02-07T10:04:25.379Z,90.80
2019-02-07T10:07:14.640Z,91.70
2019-02-07T10:10:02.284Z,91.20
2019-02-07T10:12:50.034Z,91.20
2019-02-07T10:15:42.850Z,91.10
2019-02-07T10:18:33.052Z,91.00
2019-02-07T10:21:20.182Z,91.30
2019-02-07T10:23:56.875Z,91.20
2019-02-07T10:26:33.509Z,91.50
2019-02-07T10:29:21.179Z,91.30
2019-02-07T10:32:19.185Z,91.30
2019-02-07T10:34:58.799Z,91.40
2019-02-07T10:37:40.264Z,91.50
2019-02-07T10:40:30.409Z,91.50
2019-02-07T10:43:17.839Z,91.60
2019-02-07T10:46:05.792Z,91.60
2019-02-07T10:48:53.973Z,91.60
2019-02-07T10:51:42.460Z,91.80
2019-02-07T10:54:29.366Z,91.90
2019-02-07T10:57:10.904Z,91.60
2019-02-07T11:00:17.969Z,91.60
2019-02-07T11:03:09.204Z,91.60
2019-02-07T11:05:56.927Z,91.50
2019-02-07T11:08:44.853Z,91.50
2019-02-07T11:11:32.736Z,91.40
2019-02-07T11:14:39.624Z,91.70
2019-02-07T11:17:34.917Z,91.10
2019-02-07T11:20:24.256Z,91.10
2019-02-07T11:23:25.070Z,91.10
2019-02-07T11:26:06.185Z,91.20
2019-02-07T11:28:53.997Z,91.10
2019-02-07T11:31:41.438Z,91.10
2019-02-07T11:34:48.560Z,91.20
2019-02-07T11:37:53.073Z,91.20
2019-02-07T11:40:33.702Z,91.10
2019-02-07T11:43:22.375Z,91.30
2019-02-07T11:46:10.081Z,91.00
2019-02-07T11:49:06.276Z,91.20
2019-02-07T11:51:40.590Z,91.00
2019-02-07T11:54:18.882Z,91.30
2019-02-07T11:57:07.911Z,91.30
2019-02-07T11:59:55.841Z,91.30
2019-02-07T12:02:59.949Z,91.40
2019-02-07T12:05:57.320Z,91.30
2019-02-07T12:08:45.054Z,91.30
2019-02-07T12:11:27.829Z,91.40
2019-02-07T12:14:16.618Z,92.00
2019-02-07T12:17:09.305Z,91.30
2019-02-07T12:20:18.105Z,91.20
2019-02-07T12:23:05.865Z,91.20
2019-02-07T12:25:49.005Z,91.40
2019-02-07T12:28:36.712Z,91.40
2019-02-07T12:31:23.540Z,91.60
2019-02-07T12:34:05.439Z,91.20
2019-02-07T12:36:53.209Z,91.10
2019-02-07T12:39:49.077Z,90.80
2019-02-07T12:42:43.618Z,91.00
2019-02-07T12:45:31.498Z,91.00
2019-02-07T12:48:09.789Z,91.20
2019-02-07T12:50:50.901Z,90.80
2019-02-07T12:53:42.690Z,91.10
2019-02-07T12:56:30.301Z,90.90
2019-02-07T12:59:28.074Z,90.60
2019-02-07T13:02:26.133Z,90.60
2019-02-07T13:05:17.722Z,91.00
2019-02-07T13:08:11.420Z,90.40
2019-02-07T13:10:54.282Z,90.80
2019-02-07T13:13:52.445Z,90.70
2019-02-07T13:16:39.884Z,90.50
2019-02-07T13:19:40.217Z,90.50
2019-02-07T13:22:14.031Z,90.20
2019-02-07T13:25:07.220Z,90.40
2019-02-07T13:27:48.774Z,90.00
2019-02-07T13:30:35.426Z,90.30
2019-02-07T13:33:21.516Z,90.00
2019-02-07T13:36:11.071Z,90.10
2019-02-07T13:39:05.814Z,89.90
2019-02-07T13:42:04.034Z,89.90
2019-02-07T13:45:02.061Z,89.10
2019-02-07T13:47:42.768Z,89.20
2019-02-07T13:50:32.508Z,90.00
2019-02-07T13:53:10.637Z,89.60
2019-02-07T13:55:53.581Z,89.20
2019-02-07T13:58:35.477Z,89.20
2019-02-07T14:01:24.645Z,87.60
2019-02-07T14:04:05.308Z,86.90
2019-02-07T14:06:48.744Z,87.20
2019-02-07T14:09:37.547Z,86.20
2019-02-07T14:12:21.102Z,87.40
2019-02-07T14:15:09.869Z,86.70
2019-02-07T14:17:57.481Z,85.70
2019-02-07T14:20:50.189Z,85.50
2019-02-07T14:23:44.977Z,83.30
2019-02-07T14:26:45.885Z,82.80
2019-02-07T14:29:32.733Z,82.80
2019-02-07T14:32:20.896Z,82.60
2019-02-07T14:35:01.557Z,84.20
2019-02-07T14:37:38.724Z,81.50
2019-02-07T14:40:33.237Z,82.00
2019-02-07T14:43:08.421Z,82.00
2019-02-07T14:45:52.926Z,83.20
2019-02-07T14:48:27.090Z,81.90
2019-02-07T14:50:56.764Z,82.10
2019-02-07T14:53:27.072Z,81.50
2019-02-07T14:55:56.698Z,80.50
2019-02-07T14:58:27.170Z,81.90
2019-02-07T15:00:56.853Z,80.70
2019-02-07T15:03:26.961Z,81.80
2019-02-07T15:05:56.596Z,81.50
2019-02-07T15:08:26.285Z,82.70
2019-02-07T15:10:56.066Z,83.20
2019-02-07T15:13:25.761Z,84.40
2019-02-07T15:15:55.413Z,85.60
2019-02-07T15:18:25.387Z,85.80
2019-02-07T15:20:55.009Z,85.70
2019-02-07T15:23:24.897Z,86.40
2019-02-07T15:25:54.721Z,86.30
2019-02-07T15:28:24.405Z,86.40
2019-02-07T15:30:54.190Z,85.40
2019-02-07T15:33:24.296Z,83.80
2019-02-07T15:35:54.125Z,78.30
2019-02-07T15:38:23.801Z,76.20
2019-02-07T15:40:53.973Z,77.60
2019-02-07T15:43:23.807Z,74.80
2019-02-07T15:45:53.857Z,75.90
2019-02-07T15:48:23.534Z,75.90
2019-02-07T15:50:53.414Z,73.90
2019-02-07T15:53:23.573Z,76.30
2019-02-07T15:55:53.198Z,75.70
2019-02-07T15:58:33.084Z,72.90
2019-02-07T16:01:11.185Z,73.50
2019-02-07T16:03:48.677Z,74.60
2019-02-07T16:06:18.446Z,73.90
2019-02-07T16:08:48.369Z,75.90
2019-02-07T16:11:18.501Z,75.20
2019-02-07T16:13:48.424Z,75.10
2019-02-07T16:16:18.573Z,76.40
2019-02-07T16:18:48.201Z,75.50
2019-02-07T16:21:17.827Z,76.70
2019-02-07T16:23:47.516Z,76.30
2019-02-07T16:26:17.135Z,75.90
2019-02-07T16:28:46.897Z,76.20
2019-02-07T16:31:16.809Z,76.80
2019-02-07T16:33:47.654Z,76.70
2019-02-07T16:36:17.804Z,76.70
2019-02-07T16:38:48.497Z,77.90
2019-02-07T16:41:18.366Z,77.20
2019-02-07T16:43:48.338Z,77.10
2019-02-07T16:46:18.250Z,76.60
2019-02-07T16:48:47.851Z,77.00
2019-02-07T16:51:17.848Z,76.40
2019-02-07T16:53:48.042Z,76.50
2019-02-07T16:56:17.894Z,76.40
2019-02-07T16:58:47.493Z,76.60
2019-02-07T17:01:17.361Z,76.60
2019-02-07T17:03:47.308Z,76.30
2019-02-07T17:06:18.072Z,75.70
2019-02-07T17:08:48.000Z,76.30
2019-02-07T17:11:17.715Z,76.30
2019-02-07T17:13:47.324Z,76.00
2019-02-07T17:16:17.094Z,76.70
2019-02-07T17:18:46.861Z,76.20
2019-02-07T17:21:16.778Z,76.10
2019-02-07T17:23:46.470Z,76.20
2019-02-07T17:26:16.169Z,75.90
2019-02-07T17:28:46.713Z,76.00
2019-02-07T17:31:16.427Z,75.30
2019-02-07T17:33:46.115Z,76.20
2019-02-07T17:36:16.113Z,76.50
2019-02-07T17:38:45.737Z,76.20
2019-02-07T17:41:15.681Z,77.10
2019-02-07T17:43:45.606Z,75.80
2019-02-07T17:46:15.221Z,75.40
2019-02-07T17:48:45.121Z,76.20
2019-02-07T17:51:22.977Z,76.40
2019-02-07T17:53:46.548Z,76.00
2019-02-07T17:56:16.157Z,76.00
2019-02-07T17:58:45.789Z,76.40
2019-02-07T18:01:15.478Z,76.00
2019-02-07T18:03:45.166Z,76.10
2019-02-07T18:06:15.850Z,76.10
2019-02-07T18:08:45.459Z,76.40
2019-02-07T18:11:15.162Z,75.70
2019-02-07T18:13:45.472Z,76.10
2019-02-07T18:16:15.160Z,76.20
2019-02-07T18:18:44.853Z,76.10
2019-02-07T18:21:14.927Z,76.20
2019-02-07T18:23:44.709Z,75.90
2019-02-07T18:26:14.364Z,75.60
2019-02-07T18:28:44.107Z,75.90
2019-02-07T18:31:14.075Z,76.50
2019-02-07T18:33:44.133Z,75.50
2019-02-07T18:36:13.966Z,75.70
2019-02-07T18:38:43.684Z,75.90
2019-02-07T18:41:13.399Z,75.40
2019-02-07T18:43:44.063Z,75.80
2019-02-07T18:46:13.861Z,75.30
2019-02-07T18:48:43.780Z,75.10
2019-02-07T18:51:13.838Z,74.90
2019-02-07T18:53:43.506Z,75.40
2019-02-07T18:56:13.557Z,74.80
2019-02-07T18:58:43.246Z,75.50
2019-02-07T19:01:12.965Z,74.90
2019-02-07T19:03:42.679Z,74.80
2019-02-07T19:06:12.360Z,75.00
2019-02-07T19:08:42.125Z,75.00
2019-02-07T19:11:11.825Z,75.40
2019-02-07T19:13:41.468Z,76.10
2019-02-07T19:16:16.228Z,76.30
2019-02-07T19:18:46.310Z,77.60
2019-02-07T19:21:15.936Z,77.50
2019-02-07T19:23:45.548Z,77.60
2019-02-07T19:26:15.232Z,77.40
2019-02-07T19:28:45.186Z,77.50
2019-02-07T19:31:15.178Z,77.40
2019-02-07T19:33:45.056Z,77.40
2019-02-07T19:36:14.694Z,76.90
2019-02-07T19:38:44.301Z,77.50
2019-02-07T19:41:13.957Z,77.80
2019-02-07T19:43:45.505Z,77.60
2019-02-07T19:46:15.202Z,77.80
2019-02-07T19:48:45.542Z,77.80
2019-02-07T19:51:15.416Z,77.60
2019-02-07T19:53:45.101Z,77.10
2019-02-07T19:56:14.776Z,76.90
2019-02-07T19:58:44.457Z,77.20
2019-02-07T20:01:14.073Z,77.10
2019-02-07T20:03:44.204Z,77.50
2019-02-07T20:06:13.901Z,77.60
2019-02-07T20:08:43.769Z,77.60
2019-02-07T20:11:13.461Z,77.40
2019-02-07T20:13:43.072Z,78.00
2019-02-07T20:16:13.760Z,77.80
2019-02-07T20:18:43.763Z,78.70
2019-02-07T20:21:13.466Z,77.90
2019-02-07T20:23:43.081Z,78.10
2019-02-07T20:26:12.772Z,78.20
2019-02-07T20:28:42.396Z,77.30
2019-02-07T20:31:12.339Z,77.80
2019-02-07T20:33:42.120Z,77.90
2019-02-07T20:36:11.809Z,78.00
2019-02-07T20:38:41.600Z,77.60
2019-02-07T20:41:11.348Z,77.40
2019-02-07T20:43:41.102Z,77.60
2019-02-07T20:46:10.724Z,77.20
2019-02-07T20:48:40.400Z,77.70
2019-02-07T20:51:10.527Z,78.30
2019-02-07T20:53:40.146Z,77.90
2019-02-07T20:56:09.888Z,78.10
2019-02-07T20:58:39.549Z,78.30
2019-02-07T21:01:09.170Z,78.70
2019-02-07T21:03:38.818Z,78.70
2019-02-07T21:06:09.068Z,79.00
2019-02-07T21:08:38.696Z,79.10
2019-02-07T21:11:08.621Z,79.10
2019-02-07T21:13:38.238Z,79.10
2019-02-07T21:16:07.909Z,79.40
2019-02-07T21:18:37.968Z,79.80
2019-02-07T21:21:07.957Z,79.60
2019-02-07T21:23:37.806Z,79.80
2019-02-07T21:26:07.426Z,79.90
2019-02-07T21:28:37.137Z,80.20
2019-02-07T21:31:06.754Z,80.50
2019-02-07T21:33:36.760Z,81.60
2019-02-07T21:36:06.530Z,80.90
2019-02-07T21:38:37.175Z,80.90
2019-02-07T21:41:06.857Z,81.10
2019-02-07T21:43:36.483Z,81.40
2019-02-07T21:46:06.512Z,81.40
2019-02-07T21:48:36.841Z,81.40
2019-02-07T21:51:06.596Z,81.40
2019-02-07T21:53:36.228Z,81.40
2019-02-07T21:56:06.393Z,81.80
2019-02-07T21:58:36.007Z,81.70
2019-02-07T22:01:06.615Z,82.00
2019-02-07T22:03:36.305Z,81.40
2019-02-07T22:06:06.420Z,81.70
2019-02-07T22:08:36.433Z,81.90
2019-02-07T22:11:06.385Z,82.10
2019-02-07T22:13:37.063Z,82.50
2019-02-07T22:16:06.747Z,82.90
2019-02-07T22:18:36.449Z,83.30
2019-02-07T22:21:06.464Z,83.30
2019-02-07T22:23:36.430Z,83.30
2019-02-07T22:26:06.196Z,84.10
2019-02-07T22:28:36.209Z,84.90
2019-02-07T22:31:06.800Z,85.90
2019-02-07T22:33:36.446Z,86.90
2019-02-07T22:36:06.463Z,85.70
2019-02-07T22:38:36.102Z,86.20
2019-02-07T22:41:06.293Z,85.50
2019-02-07T22:43:36.530Z,86.00
2019-02-07T22:46:06.712Z,86.60
2019-02-07T22:48:36.423Z,85.60
2019-02-07T22:51:06.213Z,86.00
2019-02-07T22:53:36.104Z,85.50
2019-02-07T22:56:05.784Z,85.20
2019-02-07T22:58:35.449Z,85.90
2019-02-07T23:01:43.106Z,85.20
2019-02-07T23:04:13.111Z,85.00
2019-02-07T23:06:43.011Z,84.90
2019-02-07T23:09:14.429Z,84.90
2019-02-07T23:11:44.549Z,85.20
2019-02-07T23:14:15.111Z,85.20
2019-02-07T23:16:44.794Z,85.40
2019-02-07T23:19:14.854Z,85.10
2019-02-07T23:21:44.548Z,84.90
2019-02-07T23:24:14.577Z,85.10
2019-02-07T23:26:44.560Z,85.10
2019-02-07T23:29:14.458Z,85.20
2019-02-07T23:31:44.157Z,85.30
2019-02-07T23:34:14.006Z,85.40
2019-02-07T23:36:43.960Z,85.30
2019-02-07T23:39:13.932Z,85.40
2019-02-07T23:41:43.558Z,84.90
2019-02-07T23:44:13.161Z,85.40
2019-02-07T23:46:42.980Z,85.60
2019-02-07T23:49:12.729Z,85.50
2019-02-07T23:51:42.581Z,85.80
2019-02-07T23:54:12.503Z,85.70
2019-02-07T23:56:42.248Z,85.40
2019-02-07T23:59:12.330Z,84.70
